South Chittenden, Vermont
Current Conditions -  °F | °C
As of 9:35 PM on Thursday 20 Nov 2014 (Local Time) from KRUT Reporting Station
Broken Clouds Broken Clouds  
Wind Chill: 13°   Ceiling: 9000
Heat Index: 25°   Visibility: 10mi
Dew Point: 10°   Wind: 13mph
Humidity: 54%   Direction: 230°SW
Pressure: 29.85"   Gusts: 16mph
Location:  43.6369°N, 72.9375°W
Report Text: KRUT 210235Z 23011G14KT 10SM BKN090 M04/M12 A2985 RMK AO1
Loading
Personal Weather Stations






























Interactive Weather Map New forecast layout! Learn more

10-Day Weather Forecast

Advertisements
Track Severe Weather on mobile